Time;durP1;ratioP1;P1;durP2;ratioP2;P2;SDS_P1;SDS_P2;PMS_P1;PMS_P2;Temp;Humidity;BMP_temperature;BMP_pressure;BME280_temperature;BME280_humidity;BME280_pressure;Samples;Min_cycle;Max_cycle;Signal;HPM_P1;HPM_P2
2021/06/18 04:31:41;;;;;;;7.80;6.63;;;19.00;99.90;;;;;;5502009;23;20488;-70
2021/06/18 04:34:07;;;;;;;7.00;6.40;;;19.10;99.90;;;;;;4987727;28;20462;-70
2021/06/18 04:36:35;;;;;;;8.30;7.50;;;19.10;99.90;;;;;;5014440;28;20460;-70
2021/06/18 04:39:01;;;;;;;10.57;6.50;;;19.10;99.90;;;;;;5014488;28;20460;-73
2021/06/18 04:41:27;;;;;;;8.17;6.50;;;19.20;99.90;;;;;;4977754;28;20434;-72
2021/06/18 04:43:53;;;;;;;7.73;7.03;;;19.30;99.90;;;;;;4994642;28;20298;-74
2021/06/18 04:46:19;;;;;;;8.27;7.57;;;19.40;99.90;;;;;;4991302;28;20831;-73
2021/06/18 04:48:44;;;;;;;11.10;7.30;;;19.50;99.90;;;;;;4994737;28;20269;-74
2021/06/18 04:51:10;;;;;;;14.23;7.27;;;19.60;99.90;;;;;;4976362;28;20592;-75
2021/06/18 04:53:36;;;;;;;7.37;6.77;;;19.70;99.90;;;;;;4994557;28;20171;-74
2021/06/18 04:56:02;;;;;;;7.80;7.10;;;19.80;99.90;;;;;;4986049;28;20545;-75
2021/06/18 04:58:28;;;;;;;7.93;5.70;;;19.90;99.90;;;;;;4995745;22;20506;-78
2021/06/18 05:00:54;;;;;;;6.90;6.30;;;20.10;99.90;;;;;;4968540;28;20945;-77
2021/06/18 05:03:20;;;;;;;9.60;6.37;;;20.30;99.90;;;;;;4970889;28;20219;-75
2021/06/18 05:05:45;;;;;;;7.43;6.70;;;20.70;99.90;;;;;;4972967;28;20183;-78
2021/06/18 05:08:11;;;;;;;9.70;6.10;;;21.10;99.90;;;;;;4972783;28;20450;-77
2021/06/18 05:10:36;;;;;;;9.93;6.87;;;21.70;99.90;;;;;;4970892;28;20184;-76
2021/06/18 05:13:02;;;;;;;7.53;6.67;;;22.20;99.90;;;;;;4969490;28;20184;-77
2021/06/18 05:15:28;;;;;;;7.83;7.13;;;22.80;99.90;;;;;;4974064;28;20180;-77
2021/06/18 05:17:53;;;;;;;8.73;6.50;;;23.10;99.90;;;;;;4968983;28;20674;-79
2021/06/18 05:20:19;;;;;;;10.63;6.20;;;23.50;99.90;;;;;;4974475;28;20546;-80
2021/06/18 05:22:45;;;;;;;7.47;6.80;;;24.20;99.90;;;;;;4972572;28;20231;-79
2021/06/18 05:25:11;;;;;;;9.67;7.87;;;24.70;99.90;;;;;;4974261;28;20179;-79
2021/06/18 05:27:37;;;;;;;10.90;7.00;;;25.00;99.90;;;;;;4973678;28;20190;-78
2021/06/18 05:30:07;;;;;;;17.77;7.87;;;25.30;99.90;;;;;;4971837;28;20894;-76
2021/06/18 05:32:33;;;;;;;7.40;6.70;;;25.60;99.90;;;;;;4966176;28;20204;-79
2021/06/18 05:34:58;;;;;;;10.70;6.90;;;26.10;99.90;;;;;;4971388;28;20445;-80
2021/06/18 05:37:24;;;;;;;7.23;6.17;;;26.40;99.90;;;;;;4974990;28;20175;-79
2021/06/18 05:39:49;;;;;;;7.13;6.53;;;26.70;99.90;;;;;;4971689;28;20200;-79
2021/06/18 05:42:15;;;;;;;6.23;5.70;;;26.90;99.90;;;;;;4974862;28;20231;-80
2021/06/18 05:44:40;;;;;;;30.00;7.70;;;27.20;99.90;;;;;;4972817;28;20188;-78
2021/06/18 05:47:06;;;;;;;7.37;6.70;;;27.50;99.90;;;;;;4971939;28;20191;-77
2021/06/18 05:49:32;;;;;;;7.67;6.70;;;27.50;99.90;;;;;;4972300;28;20231;-78
2021/06/18 05:51:58;;;;;;;6.03;5.47;;;27.80;99.90;;;;;;4970563;28;20204;-78
2021/06/18 05:54:25;;;;;;;7.53;5.90;;;27.90;99.90;;;;;;4973420;28;20188;-79
2021/06/18 05:56:51;;;;;;;6.60;5.23;;;28.10;99.90;;;;;;4972567;28;20652;-78
2021/06/18 05:59:17;;;;;;;6.53;5.20;;;28.40;99.90;;;;;;4972423;28;20470;-78
2021/06/18 06:01:42;;;;;;;9.73;4.30;;;28.50;99.90;;;;;;4965780;28;20639;-78
2021/06/18 06:04:08;;;;;;;10.80;4.40;;;28.70;99.90;;;;;;4972924;28;20207;-80
2021/06/18 06:06:33;;;;;;;4.77;4.27;;;28.90;99.90;;;;;;4971981;28;20188;-78
2021/06/18 06:08:59;;;;;;;5.90;4.80;;;29.00;99.90;;;;;;4973550;28;20550;-78
2021/06/18 06:11:26;;;;;;;3.83;3.53;;;29.20;99.90;;;;;;4954654;28;20287;-78
2021/06/18 06:13:58;;;;;;;5.83;3.50;;;29.40;99.90;;;;;;4970595;28;20733;-79
2021/06/18 06:16:24;;;;;;;4.70;3.50;;;29.60;99.90;;;;;;4972351;28;20412;-79
2021/06/18 06:18:50;;;;;;;6.60;3.60;;;29.80;99.90;;;;;;4954386;28;20443;-76
2021/06/18 06:21:15;;;;;;;4.80;3.60;;;29.90;99.90;;;;;;4973059;28;20246;-76
2021/06/18 06:23:41;;;;;;;6.57;4.83;;;30.10;99.90;;;;;;4970246;28;20216;-77
2021/06/18 06:26:07;;;;;;;8.67;4.40;;;30.40;99.90;;;;;;4973236;28;20172;-76
2021/06/18 06:28:32;;;;;;;5.10;4.07;;;30.50;99.90;;;;;;4971136;28;20608;-76
2021/06/18 06:30:58;;;;;;;4.13;3.80;;;30.60;99.90;;;;;;4971422;28;20195;-76
2021/06/18 06:33:24;;;;;;;5.20;3.53;;;30.80;99.90;;;;;;4965432;28;20631;-77
2021/06/18 06:35:50;;;;;;;8.23;3.87;;;30.90;99.90;;;;;;4972864;28;20687;-76
2021/06/18 06:38:19;;;;;;;5.97;3.80;;;31.10;99.90;;;;;;4972833;28;20440;-76
2021/06/18 06:40:45;;;;;;;5.37;4.23;;;31.10;99.90;;;;;;4971573;28;20314;-77
2021/06/18 06:43:10;;;;;;;8.27;4.13;;;31.20;99.90;;;;;;4971260;28;20555;-79
2021/06/18 06:45:36;;;;;;;4.40;3.60;;;31.30;99.90;;;;;;4967761;28;20185;-77
2021/06/18 06:48:01;;;;;;;8.27;4.27;;;31.60;99.90;;;;;;4964221;28;20184;-77
2021/06/18 06:50:27;;;;;;;4.13;3.73;;;31.70;99.90;;;;;;4970533;28;20184;-77
2021/06/18 06:52:52;;;;;;;3.90;3.60;;;31.80;99.90;;;;;;4972695;28;20211;-77
2021/06/18 06:55:18;;;;;;;3.60;3.30;;;31.80;99.90;;;;;;4973139;28;20234;-77
2021/06/18 06:57:43;;;;;;;3.77;3.57;;;31.80;99.90;;;;;;4970792;28;20202;-77
2021/06/18 07:00:09;;;;;;;5.20;4.70;;;31.90;99.90;;;;;;4972576;28;20178;-78
2021/06/18 07:02:35;;;;;;;6.17;4.13;;;31.80;99.90;;;;;;4964260;28;20780;-75
2021/06/18 07:05:01;;;;;;;3.67;3.47;;;31.80;99.90;;;;;;4970860;28;20435;-76
2021/06/18 07:07:27;;;;;;;3.53;3.37;;;32.10;99.90;;;;;;4967563;28;20202;-76
2021/06/18 07:09:52;;;;;;;5.57;5.07;;;31.90;99.90;;;;;;4972770;28;20411;-77
2021/06/18 07:12:18;;;;;;;3.80;3.50;;;32.10;99.90;;;;;;4972301;28;20579;-79
2021/06/18 07:14:43;;;;;;;5.17;4.80;;;32.30;99.90;;;;;;4972660;28;20736;-77
2021/06/18 07:17:09;;;;;;;4.23;3.93;;;32.30;99.90;;;;;;4968569;28;20180;-77
2021/06/18 07:19:35;;;;;;;7.33;3.63;;;32.50;99.90;;;;;;4972208;28;20195;-78
2021/06/18 07:22:02;;;;;;;5.57;4.20;;;32.80;99.90;;;;;;4971943;28;20204;-79
2021/06/18 07:24:27;;;;;;;4.43;3.87;;;33.00;99.90;;;;;;4970697;28;20459;-77
2021/06/18 07:26:57;;;;;;;7.03;4.17;;;33.00;99.90;;;;;;4970506;28;20424;-79
2021/06/18 07:29:23;;;;;;;5.17;4.77;;;33.00;99.90;;;;;;4962311;28;20600;-77
2021/06/18 07:31:49;;;;;;;4.93;4.53;;;32.80;99.90;;;;;;4948526;28;20597;-78
2021/06/18 07:34:14;;;;;;;9.00;5.30;;;32.70;99.90;;;;;;4963845;28;20492;-78
2021/06/18 07:36:40;;;;;;;10.60;5.17;;;32.80;99.90;;;;;;4970407;28;20183;-76
2021/06/18 07:39:08;;;;;;;14.10;6.13;;;32.80;99.90;;;;;;4970745;28;20192;-77
2021/06/18 07:41:35;;;;;;;5.77;5.27;;;32.80;99.90;;;;;;4953558;28;20879;-76
2021/06/18 07:44:01;;;;;;;6.70;4.60;;;32.90;99.90;;;;;;4971668;28;20624;-77
2021/06/18 07:46:27;;;;;;;8.50;5.33;;;33.10;99.90;;;;;;4971411;28;20443;-77
2021/06/18 07:48:53;;;;;;;5.37;4.87;;;33.30;99.90;;;;;;4941747;29;20189;-77
2021/06/18 07:51:19;;;;;;;12.87;5.70;;;33.20;99.90;;;;;;4964468;28;20462;-77
2021/06/18 07:53:45;;;;;;;6.23;5.40;;;33.30;99.90;;;;;;4975448;28;20176;-77
2021/06/18 07:56:11;;;;;;;10.00;6.20;;;33.20;99.90;;;;;;4951551;29;20436;-77
2021/06/18 07:58:38;;;;;;;5.83;5.33;;;33.30;99.90;;;;;;4956325;29;20749;-79
2021/06/18 08:01:04;;;;;;;5.63;5.10;;;33.40;99.90;;;;;;4956956;28;20507;-77
2021/06/18 08:03:29;;;;;;;6.57;5.07;;;33.50;99.90;;;;;;4953427;28;20498;-78
2021/06/18 08:05:55;;;;;;;12.50;5.70;;;33.40;99.90;;;;;;4958150;28;20184;-76
2021/06/18 08:08:20;;;;;;;9.20;6.43;;;33.30;99.90;;;;;;4974656;28;20259;-78
2021/06/18 08:10:46;;;;;;;9.93;5.40;;;33.50;99.90;;;;;;4975641;28;20207;-77
2021/06/18 08:13:11;;;;;;;9.30;5.93;;;33.80;99.90;;;;;;4953748;28;20680;-77
2021/06/18 08:15:37;;;;;;;6.70;5.93;;;34.00;99.90;;;;;;4975768;28;20180;-77
2021/06/18 08:18:02;;;;;;;10.73;6.20;;;34.00;99.90;;;;;;4972330;28;20215;-78
2021/06/18 08:20:28;;;;;;;6.90;6.20;;;34.00;99.90;;;;;;4975372;28;20204;-78
2021/06/18 08:22:55;;;;;;;7.33;5.73;;;34.00;99.90;;;;;;4973941;28;20263;-77
2021/06/18 08:25:20;;;;;;;9.00;6.20;;;34.10;99.90;;;;;;4967591;28;20212;-77
2021/06/18 08:27:46;;;;;;;15.80;7.23;;;34.30;99.90;;;;;;4975221;28;20443;-77
2021/06/18 08:30:12;;;;;;;6.90;5.60;;;34.30;99.90;;;;;;4974021;28;20191;-78
2021/06/18 08:32:38;;;;;;;6.23;5.60;;;34.40;99.90;;;;;;4970039;28;20235;-78
2021/06/18 08:35:04;;;;;;;9.97;6.40;;;34.70;99.90;;;;;;4971917;28;20545;-77
2021/06/18 08:37:30;;;;;;;10.70;6.03;;;34.70;99.70;;;;;;4975335;28;20172;-77
2021/06/18 08:39:56;;;;;;;10.90;5.80;;;34.80;99.90;;;;;;4973622;28;20184;-78
2021/06/18 08:42:21;;;;;;;9.10;6.70;;;35.00;99.60;;;;;;4975316;28;20661;-78
2021/06/18 08:44:47;;;;;;;6.43;5.57;;;34.70;99.00;;;;;;4973607;28;20184;-77
2021/06/18 08:47:13;;;;;;;8.40;6.43;;;34.60;99.80;;;;;;4963821;28;20195;-79
2021/06/18 08:49:39;;;;;;;14.93;6.53;;;34.90;98.90;;;;;;4973753;28;20184;-77
2021/06/18 08:52:05;;;;;;;7.50;6.33;;;35.20;99.00;;;;;;4973058;28;20218;-77
2021/06/18 08:54:44;;;;;;;9.07;5.73;;;35.50;97.80;;;;;;4974013;28;20191;-78
2021/06/18 08:57:19;;;;;;;6.57;6.00;;;35.70;98.60;;;;;;4970285;28;20916;-80
2021/06/18 08:59:46;;;;;;;13.00;7.20;;;35.30;98.10;;;;;;4974964;28;20936;-77
2021/06/18 09:02:13;;;;;;;9.40;6.90;;;35.20;98.20;;;;;;4966890;28;20511;-78
2021/06/18 09:05:09;;;;;;;7.37;6.13;;;35.50;97.80;;;;;;4975163;28;20427;-77
2021/06/18 09:07:53;;;;;;;7.90;5.17;;;35.70;97.40;;;;;;4953537;28;20983;-77
2021/06/18 09:10:23;;;;;;;6.70;6.00;;;35.80;97.90;;;;;;4974778;28;20943;-77
2021/06/18 09:13:10;;;;;;;6.87;6.17;;;35.80;96.40;;;;;;4973022;28;20553;-77
2021/06/18 09:15:39;;;;;;;7.37;6.33;;;36.10;96.50;;;;;;4974596;28;20510;-77
2021/06/18 09:18:22;;;;;;;6.73;5.80;;;36.30;97.40;;;;;;4969349;28;20448;-77
2021/06/18 09:20:50;;;;;;;12.23;5.97;;;36.70;95.50;;;;;;4955019;28;20492;-77
2021/06/18 09:23:27;;;;;;;8.90;6.10;;;36.70;94.70;;;;;;4943842;28;20454;-77
2021/06/18 09:26:28;;;;;;;11.80;6.80;;;36.60;94.20;;;;;;4974247;28;20430;-77
2021/06/18 09:29:21;;;;;;;9.80;6.33;;;36.70;94.20;;;;;;4954579;28;20465;-77
2021/06/18 09:31:54;;;;;;;8.60;5.90;;;36.80;94.50;;;;;;4955389;28;20465;-77
2021/06/18 09:34:59;;;;;;;10.07;6.37;;;37.00;94.50;;;;;;4970146;28;20446;-77
2021/06/18 09:37:38;;;;;;;11.83;6.93;;;37.40;94.20;;;;;;4975491;28;20415;-81
2021/06/18 09:40:17;;;;;;;7.20;6.60;;;37.20;92.70;;;;;;4965870;28;20533;-76
2021/06/18 09:42:55;;;;;;;6.70;6.00;;;37.10;93.30;;;;;;4959661;28;20466;-77
2021/06/18 09:45:25;;;;;;;7.63;5.30;;;37.40;93.90;;;;;;4946814;28;21143;-78
2021/06/18 09:47:52;;;;;;;6.87;6.23;;;37.90;94.00;;;;;;4961481;28;20513;-79
2021/06/18 09:50:29;;;;;;;6.90;6.20;;;38.00;92.10;;;;;;4961874;28;20436;-79
2021/06/18 09:53:21;;;;;;;7.33;5.97;;;37.80;91.90;;;;;;4967102;28;20433;-79
2021/06/18 09:56:08;;;;;;;5.93;5.20;;;38.60;91.30;;;;;;4959525;28;20481;-79
2021/06/18 09:58:42;;;;;;;6.33;5.80;;;37.70;90.20;;;;;;4959779;28;21035;-77
2021/06/18 10:01:24;;;;;;;11.63;6.40;;;38.10;90.10;;;;;;4960987;28;20543;-79
2021/06/18 10:04:13;;;;;;;6.80;6.20;;;38.40;90.30;;;;;;4968497;28;20462;-78
2021/06/18 10:06:41;;;;;;;5.87;5.30;;;38.60;88.60;;;;;;4960342;28;20438;-79
2021/06/18 10:09:09;;;;;;;5.20;4.40;;;38.20;87.10;;;;;;4973473;28;20497;-77
2021/06/18 10:11:36;;;;;;;6.30;5.33;;;38.40;86.80;;;;;;4955303;28;20525;-79
2021/06/18 10:14:03;;;;;;;6.30;5.70;;;39.00;86.80;;;;;;4970002;28;20450;-79
2021/06/18 10:16:28;;;;;;;6.40;5.20;;;39.30;88.80;;;;;;4973631;28;20477;-80
2021/06/18 10:18:59;;;;;;;6.03;5.27;;;39.40;85.70;;;;;;4971155;28;20880;-79
2021/06/18 10:21:26;;;;;;;5.80;5.30;;;39.70;82.90;;;;;;4974457;28;20199;-79
2021/06/18 10:24:01;;;;;;;6.50;5.57;;;39.80;83.50;;;;;;4969019;28;20471;-81
2021/06/18 10:26:28;;;;;;;5.40;5.00;;;39.80;79.60;;;;;;4970270;28;20430;-79
2021/06/18 10:28:59;;;;;;;7.97;5.90;;;39.60;81.40;;;;;;4962744;28;20664;-80
2021/06/18 10:31:31;;;;;;;8.13;5.47;;;39.20;79.40;;;;;;4954693;28;20435;-79
2021/06/18 10:34:04;;;;;;;4.77;4.33;;;38.10;79.90;;;;;;4954098;29;20416;-80
2021/06/18 10:36:30;;;;;;;5.30;4.90;;;38.40;83.00;;;;;;4954356;29;20883;-79
2021/06/18 10:39:15;;;;;;;8.70;4.67;;;38.80;81.20;;;;;;4936781;29;20427;-79
2021/06/18 10:41:45;;;;;;;5.30;4.80;;;39.70;78.70;;;;;;4954741;28;20191;-79
2021/06/18 10:44:11;;;;;;;6.47;5.97;;;39.80;77.90;;;;;;4954319;29;20834;-80
2021/06/18 10:46:37;;;;;;;4.90;4.60;;;39.20;75.50;;;;;;4954364;29;20774;-80
2021/06/18 10:49:09;;;;;;;5.07;4.60;;;39.30;75.30;;;;;;4953867;29;20418;-79
2021/06/18 10:52:02;;;;;;;5.30;4.90;;;39.30;76.00;;;;;;4954369;28;20593;-81
2021/06/18 10:54:50;;;;;;;5.10;4.60;;;39.10;72.00;;;;;;4949032;28;21004;-78
2021/06/18 10:57:20;;;;;;;6.20;4.43;;;38.60;73.50;;;;;;4953658;29;20426;-79
2021/06/18 10:59:48;;;;;;;5.63;4.73;;;38.20;73.60;;;;;;4953712;29;20412;-79
2021/06/18 11:02:26;;;;;;;4.53;4.23;;;38.50;72.50;;;;;;4953632;29;21116;-79
2021/06/18 11:04:57;;;;;;;6.23;4.73;;;38.40;73.00;;;;;;4953484;28;20446;-78
2021/06/18 11:07:33;;;;;;;5.30;4.87;;;38.10;73.70;;;;;;4953814;28;20428;-79
2021/06/18 11:10:28;;;;;;;10.67;5.40;;;37.90;75.90;;;;;;4953724;29;20431;-79
2021/06/18 11:13:01;;;;;;;11.87;5.47;;;37.50;72.40;;;;;;4943058;29;20940;-78
2021/06/18 11:15:30;;;;;;;4.77;4.33;;;37.30;74.10;;;;;;4953649;29;20417;-80
2021/06/18 11:18:16;;;;;;;4.40;4.17;;;37.20;71.60;;;;;;4936544;29;20800;-78
2021/06/18 11:20:41;;;;;;;4.43;4.07;;;37.00;71.60;;;;;;4953431;29;20437;-77
2021/06/18 11:23:13;;;;;;;6.20;4.77;;;37.10;71.10;;;;;;4952970;29;20492;-77
2021/06/18 11:25:39;;;;;;;4.60;4.20;;;36.90;72.20;;;;;;4954955;28;20172;-79
2021/06/18 11:28:26;;;;;;;4.97;4.67;;;36.50;70.50;;;;;;4957274;29;21031;-79
2021/06/18 11:30:57;;;;;;;4.03;3.93;;;36.40;71.60;;;;;;4957241;29;20192;-79
2021/06/18 11:36:22;;;;;;;6.27;4.70;;;36.60;70.70;;;;;;4956749;29;20412;-79
2021/06/18 11:39:00;;;;;;;9.57;4.00;;;36.80;71.00;;;;;;4957586;28;20784;-78
2021/06/18 11:41:27;;;;;;;4.97;4.50;;;36.40;69.70;;;;;;4957241;29;20805;-79
2021/06/18 11:43:56;;;;;;;4.80;4.50;;;36.30;73.80;;;;;;4956807;29;20506;-79
2021/06/18 11:46:23;;;;;;;5.00;4.30;;;36.40;70.20;;;;;;4957441;28;20455;-79
2021/06/18 11:48:49;;;;;;;7.37;4.83;;;36.00;70.70;;;;;;4957047;29;20417;-77
2021/06/18 11:51:26;;;;;;;5.50;5.00;;;35.90;72.40;;;;;;4957163;28;20444;-79
2021/06/18 11:53:52;;;;;;;11.40;5.30;;;35.90;72.80;;;;;;4955473;29;20834;-78
2021/06/18 11:56:18;;;;;;;7.00;5.47;;;36.20;73.10;;;;;;4956812;29;20933;-78
2021/06/18 11:58:46;;;;;;;7.57;4.80;;;36.10;74.70;;;;;;4956195;28;20451;-78
2021/06/18 12:01:20;;;;;;;6.47;5.50;;;36.00;74.50;;;;;;4956728;28;20443;-78
2021/06/18 12:03:48;;;;;;;6.07;5.37;;;35.70;74.20;;;;;;4956625;29;20554;-78
2021/06/18 12:06:26;;;;;;;6.30;4.63;;;35.50;76.30;;;;;;4956724;29;20413;-78
2021/06/18 12:09:16;;;;;;;6.73;4.70;;;35.60;73.50;;;;;;4956677;29;20423;-80
2021/06/18 12:11:56;;;;;;;4.50;4.20;;;35.50;73.50;;;;;;4939351;29;20432;-78
2021/06/18 12:14:21;;;;;;;5.10;4.70;;;35.20;72.60;;;;;;4956738;29;20423;-79
2021/06/18 12:16:49;;;;;;;4.70;4.33;;;35.20;76.10;;;;;;4956519;29;20423;-78
2021/06/18 12:19:37;;;;;;;8.83;5.20;;;35.20;78.30;;;;;;4956164;29;20176;-73
2021/06/18 12:22:07;;;;;;;7.00;5.10;;;35.70;78.80;;;;;;4955485;28;20432;-74
2021/06/18 12:24:57;;;;;;;12.53;4.83;;;35.70;76.00;;;;;;4974715;28;20462;-74
2021/06/18 12:27:27;;;;;;;6.80;5.27;;;35.60;76.70;;;;;;4975642;28;20416;-73
2021/06/18 12:29:55;;;;;;;10.13;5.30;;;35.10;76.80;;;;;;4975999;28;20399;-74
2021/06/18 12:32:24;;;;;;;6.33;4.83;;;35.00;76.60;;;;;;4975556;28;21037;-74
2021/06/18 12:34:58;;;;;;;5.73;5.23;;;35.10;75.40;;;;;;4975349;28;20414;-74
2021/06/18 12:37:27;;;;;;;6.43;5.03;;;34.90;76.40;;;;;;4976052;28;20422;-74
2021/06/18 12:39:59;;;;;;;5.33;4.83;;;34.90;80.90;;;;;;4958424;28;20828;-75
2021/06/18 12:42:31;;;;;;;9.00;5.40;;;35.00;79.80;;;;;;4975649;28;20507;-76
2021/06/18 12:45:13;;;;;;;5.50;5.10;;;35.10;78.00;;;;;;4974718;28;20793;-74
2021/06/18 12:47:41;;;;;;;8.77;4.87;;;35.20;79.90;;;;;;4974554;28;20450;-75
2021/06/18 12:50:28;;;;;;;5.17;4.73;;;35.10;77.30;;;;;;4957222;28;20422;-74
2021/06/18 12:53:05;;;;;;;6.60;5.40;;;35.10;77.30;;;;;;4974505;28;20421;-75
2021/06/18 12:55:33;;;;;;;7.30;4.50;;;35.10;77.80;;;;;;4974703;28;20419;-73
2021/06/18 12:58:15;;;;;;;5.67;5.27;;;35.10;77.70;;;;;;4974527;28;20442;-74
2021/06/18 13:00:48;;;;;;;14.40;5.10;;;34.80;76.30;;;;;;4974449;28;20419;-75
2021/06/18 13:03:15;;;;;;;5.20;4.90;;;34.50;77.10;;;;;;4974323;28;20495;-75
2021/06/18 13:05:50;;;;;;;5.40;5.00;;;34.40;76.20;;;;;;4974513;28;20412;-74
2021/06/18 13:08:19;;;;;;;8.53;5.13;;;34.20;76.50;;;;;;4974336;28;20407;-75
2021/06/18 13:10:46;;;;;;;7.73;4.90;;;34.30;78.90;;;;;;4974376;28;20450;-74
2021/06/18 13:13:26;;;;;;;4.60;4.20;;;34.30;77.50;;;;;;4974025;28;20416;-76
2021/06/18 13:15:52;;;;;;;6.13;4.33;;;34.30;78.20;;;;;;4974516;28;20936;-76
2021/06/18 13:18:18;;;;;;;5.50;5.00;;;34.50;76.80;;;;;;4973957;28;20423;-76
2021/06/18 13:20:45;;;;;;;6.70;4.33;;;34.50;76.80;;;;;;4974176;28;20420;-75
2021/06/18 13:23:27;;;;;;;8.73;4.40;;;34.40;77.40;;;;;;4973436;28;20640;-76
2021/06/18 13:26:04;;;;;;;4.73;4.33;;;34.50;78.40;;;;;;4974188;28;20416;-73
2021/06/18 13:29:08;;;;;;;4.63;4.20;;;34.40;77.90;;;;;;4973944;28;20407;-75
2021/06/18 13:31:34;;;;;;;5.50;4.37;;;34.30;80.00;;;;;;4974165;28;20427;-74
2021/06/18 13:34:04;;;;;;;4.67;4.37;;;34.30;78.70;;;;;;4973658;28;20419;-74
2021/06/18 13:36:33;;;;;;;9.70;4.97;;;34.40;79.20;;;;;;4974131;28;20782;-74
2021/06/18 13:39:11;;;;;;;5.30;4.80;;;34.30;76.50;;;;;;4973730;28;20416;-75
2021/06/18 13:41:41;;;;;;;5.67;4.50;;;34.30;77.60;;;;;;4973829;28;20529;-75
2021/06/18 13:44:07;;;;;;;9.07;5.03;;;34.10;75.90;;;;;;4973395;28;20546;-73
2021/06/18 13:46:35;;;;;;;7.97;5.13;;;33.80;75.50;;;;;;4973690;28;20411;-74
2021/06/18 13:49:01;;;;;;;8.93;5.20;;;33.90;76.60;;;;;;4973143;28;20423;-76
2021/06/18 13:51:26;;;;;;;10.17;5.47;;;33.90;75.70;;;;;;4973293;28;20935;-75
2021/06/18 13:53:53;;;;;;;6.87;4.30;;;33.90;76.20;;;;;;4973485;28;20183;-76
2021/06/18 13:56:19;;;;;;;7.63;4.77;;;33.90;76.20;;;;;;4973208;28;20179;-75
2021/06/18 13:58:46;;;;;;;10.80;5.00;;;34.00;74.60;;;;;;4956010;28;20435;-75
2021/06/18 14:01:12;;;;;;;9.53;5.57;;;34.00;74.00;;;;;;4955972;28;20989;-76
2021/06/18 14:03:38;;;;;;;4.87;4.33;;;34.00;76.00;;;;;;4972949;28;20811;-74
2021/06/18 14:06:04;;;;;;;6.57;4.07;;;34.00;74.40;;;;;;4973203;28;20434;-75
2021/06/18 14:08:29;;;;;;;6.43;4.43;;;34.10;74.70;;;;;;4969122;28;20188;-75
2021/06/18 14:10:56;;;;;;;8.53;4.53;;;34.00;74.30;;;;;;4972107;28;20227;-74
2021/06/18 14:13:22;;;;;;;7.83;4.20;;;33.90;74.50;;;;;;4969658;28;20191;-74
2021/06/18 14:15:51;;;;;;;8.97;4.07;;;34.00;76.80;;;;;;4973155;28;20415;-74
2021/06/18 14:18:22;;;;;;;5.23;4.57;;;34.10;77.20;;;;;;4972772;28;20176;-75
2021/06/18 14:20:49;;;;;;;5.20;4.60;;;34.10;75.40;;;;;;4972865;28;20908;-75
2021/06/18 14:23:19;;;;;;;8.50;4.53;;;34.20;75.50;;;;;;4972521;28;20470;-75
2021/06/18 14:25:45;;;;;;;6.67;4.60;;;34.30;72.50;;;;;;4972771;28;20423;-75
2021/06/18 14:28:11;;;;;;;5.00;3.53;;;34.10;70.70;;;;;;4972747;28;20411;-75
2021/06/18 14:30:37;;;;;;;5.17;4.23;;;34.10;71.00;;;;;;4972787;28;20431;-75
2021/06/18 14:33:05;;;;;;;4.60;4.23;;;34.10;70.90;;;;;;4972588;28;20172;-75
2021/06/18 14:35:31;;;;;;;4.90;4.43;;;33.90;69.90;;;;;;4972806;28;20176;-75
2021/06/18 14:37:56;;;;;;;12.00;4.10;;;33.90;70.60;;;;;;4952286;28;20439;-75
2021/06/18 14:40:22;;;;;;;5.87;3.73;;;33.80;70.30;;;;;;4963122;28;20246;-75
2021/06/18 14:42:48;;;;;;;8.70;4.17;;;33.80;71.10;;;;;;4953262;29;20357;-75
2021/06/18 14:45:14;;;;;;;6.20;4.03;;;33.80;74.00;;;;;;4952926;29;20228;-75
2021/06/18 14:47:40;;;;;;;6.87;4.30;;;33.90;71.70;;;;;;4953381;29;20260;-76
2021/06/18 14:50:07;;;;;;;5.50;3.90;;;33.90;73.60;;;;;;4952848;29;20552;-75
2021/06/18 14:52:33;;;;;;;7.73;3.90;;;33.90;73.20;;;;;;4953055;28;20978;-75
2021/06/18 14:54:59;;;;;;;12.43;3.90;;;33.80;70.60;;;;;;4953144;29;20499;-76
2021/06/18 14:57:24;;;;;;;6.60;4.50;;;33.80;73.10;;;;;;4952865;29;20181;-75
2021/06/18 14:59:50;;;;;;;4.30;3.90;;;33.70;75.60;;;;;;4952207;29;20181;-75
2021/06/18 15:02:15;;;;;;;6.17;4.70;;;33.80;73.60;;;;;;4952800;29;20188;-75
2021/06/18 15:04:41;;;;;;;9.10;4.10;;;33.90;71.50;;;;;;4952818;29;20710;-75
2021/06/18 15:07:06;;;;;;;6.97;3.60;;;33.90;72.20;;;;;;4952601;29;20195;-76
2021/06/18 15:09:32;;;;;;;6.00;3.53;;;33.80;69.60;;;;;;4952906;28;20228;-75
2021/06/18 15:11:57;;;;;;;6.60;3.80;;;33.80;67.80;;;;;;4952943;29;20192;-75
2021/06/18 15:14:23;;;;;;;8.23;3.60;;;33.60;66.30;;;;;;4952794;29;20207;-75
2021/06/18 15:16:48;;;;;;;6.03;4.00;;;33.60;66.80;;;;;;4953260;29;20180;-75
2021/06/18 15:19:14;;;;;;;9.40;3.77;;;33.50;67.70;;;;;;4952720;29;20243;-76
2021/06/18 15:21:41;;;;;;;8.63;4.13;;;33.50;67.20;;;;;;4953200;28;20196;-75
2021/06/18 15:24:07;;;;;;;7.47;3.93;;;33.50;67.30;;;;;;4952452;28;20204;-77
2021/06/18 15:26:33;;;;;;;7.73;3.70;;;33.50;66.80;;;;;;4953125;29;20468;-76
2021/06/18 15:28:58;;;;;;;10.23;4.60;;;33.40;67.20;;;;;;4952897;29;20948;-76
2021/06/18 15:31:26;;;;;;;8.07;4.00;;;33.40;66.00;;;;;;4952757;29;20196;-75
2021/06/18 15:33:51;;;;;;;6.87;3.73;;;33.40;66.90;;;;;;4952753;29;20173;-76
2021/06/18 15:36:18;;;;;;;4.63;3.97;;;33.30;67.60;;;;;;4953098;29;20415;-76
2021/06/18 15:38:43;;;;;;;7.27;3.53;;;33.40;66.20;;;;;;4953019;29;20185;-77
2021/06/18 15:41:09;;;;;;;7.80;3.93;;;33.40;67.10;;;;;;4952812;28;20516;-74
2021/06/18 15:43:35;;;;;;;7.63;3.87;;;33.30;66.30;;;;;;4953004;29;20602;-74
2021/06/18 15:46:00;;;;;;;7.40;4.10;;;33.20;67.60;;;;;;4952804;29;20176;-76
2021/06/18 15:48:26;;;;;;;5.20;3.70;;;33.20;67.30;;;;;;4952744;29;20475;-74
2021/06/18 15:50:52;;;;;;;8.93;4.57;;;33.30;67.00;;;;;;4952610;29;20189;-74
2021/06/18 15:53:17;;;;;;;9.53;4.70;;;33.30;68.00;;;;;;4952546;29;20536;-74
2021/06/18 15:55:44;;;;;;;6.60;3.47;;;33.20;68.50;;;;;;4952745;29;20176;-75
2021/06/18 15:58:09;;;;;;;4.37;3.73;;;33.30;67.60;;;;;;4952506;29;20604;-75
2021/06/18 16:00:35;;;;;;;6.63;4.13;;;33.30;68.90;;;;;;4952569;29;20447;-74
2021/06/18 16:03:00;;;;;;;5.63;3.93;;;33.20;67.70;;;;;;4935079;29;20212;-75
2021/06/18 16:05:26;;;;;;;6.17;5.13;;;33.20;67.40;;;;;;4952492;28;20185;-75
2021/06/18 16:07:52;;;;;;;5.93;3.83;;;33.10;67.90;;;;;;4952715;29;20230;-75
2021/06/18 16:10:17;;;;;;;10.30;4.27;;;33.10;68.40;;;;;;4952502;29;20188;-75
2021/06/18 16:12:43;;;;;;;6.33;4.23;;;33.10;67.80;;;;;;4955315;29;20196;-74
2021/06/18 16:15:08;;;;;;;6.63;4.67;;;33.10;67.20;;;;;;4956057;29;20638;-75
2021/06/18 16:17:34;;;;;;;8.07;4.20;;;33.10;67.40;;;;;;4955928;29;20180;-75
2021/06/18 16:20:00;;;;;;;5.43;3.73;;;33.10;68.00;;;;;;4955862;29;20650;-75
2021/06/18 16:22:25;;;;;;;10.13;3.20;;;33.00;70.00;;;;;;4955839;29;20199;-74
2021/06/18 16:24:51;;;;;;;7.00;3.80;;;33.00;69.00;;;;;;4955814;28;20692;-75
2021/06/18 16:27:16;;;;;;;9.13;4.30;;;32.90;68.10;;;;;;4956060;28;20199;-74
2021/06/18 16:29:43;;;;;;;4.80;3.47;;;33.00;68.50;;;;;;4955631;29;20173;-75
2021/06/18 16:32:08;;;;;;;8.93;3.50;;;33.00;70.40;;;;;;4955766;29;20678;-75
2021/06/18 16:34:34;;;;;;;7.40;4.27;;;32.90;70.20;;;;;;4955513;28;20426;-75
2021/06/18 16:37:00;;;;;;;5.23;4.70;;;32.90;69.10;;;;;;4956380;28;20240;-75
2021/06/18 16:39:26;;;;;;;9.43;4.73;;;32.90;69.40;;;;;;4955584;28;20294;-75
2021/06/18 16:41:52;;;;;;;4.43;4.00;;;32.90;69.20;;;;;;4955612;29;20494;-74
2021/06/18 16:44:17;;;;;;;4.73;3.93;;;32.90;68.70;;;;;;4955098;29;20208;-75
2021/06/18 16:46:44;;;;;;;5.87;3.77;;;32.90;69.40;;;;;;4955613;29;20550;-76
2021/06/18 16:49:10;;;;;;;10.07;4.30;;;32.90;70.00;;;;;;4955548;29;20169;-75
2021/06/18 16:51:35;;;;;;;6.93;4.10;;;32.80;70.30;;;;;;4955265;28;20455;-76
2021/06/18 16:54:01;;;;;;;7.83;3.77;;;32.70;68.60;;;;;;4955351;29;20177;-75
2021/06/18 16:56:27;;;;;;;13.13;4.00;;;32.60;69.20;;;;;;4955146;29;20192;-75
2021/06/18 16:58:52;;;;;;;6.20;4.37;;;32.50;69.40;;;;;;4955309;28;20203;-75
2021/06/18 17:01:19;;;;;;;5.40;3.97;;;32.40;69.20;;;;;;4954839;29;20223;-75
2021/06/18 17:03:45;;;;;;;8.33;4.57;;;32.30;69.70;;;;;;4955094;29;20205;-75
2021/06/18 17:06:10;;;;;;;12.73;4.90;;;32.20;70.40;;;;;;4954882;29;20902;-75
2021/06/18 17:08:39;;;;;;;9.00;4.07;;;32.10;70.80;;;;;;4955216;28;20413;-75
2021/06/18 17:11:09;;;;;;;9.33;4.10;;;31.90;72.20;;;;;;4954777;29;20203;-76
2021/06/18 17:14:01;;;;;;;5.53;4.43;;;31.80;73.00;;;;;;4954929;29;20787;-77
2021/06/18 17:16:27;;;;;;;6.63;4.97;;;31.80;73.30;;;;;;4954469;29;20409;-75
2021/06/18 17:18:52;;;;;;;7.00;5.60;;;31.60;74.30;;;;;;4970393;28;20434;-75
2021/06/18 17:21:22;;;;;;;6.47;4.93;;;31.50;75.60;;;;;;4957205;28;20209;-75
2021/06/18 17:23:48;;;;;;;6.23;5.60;;;31.40;76.80;;;;;;4953220;28;20212;-75
2021/06/18 17:26:15;;;;;;;9.00;5.47;;;31.30;79.80;;;;;;4954324;28;20528;-76
2021/06/18 17:28:41;;;;;;;7.90;4.87;;;31.20;86.60;;;;;;4954589;29;20424;-75